createdAt,value
2019-04-11T00:01:56.909Z,6.71
2019-04-11T00:04:30.221Z,6.64
2019-04-11T00:07:03.662Z,6.63
2019-04-11T00:09:35.863Z,6.62
2019-04-11T00:12:08.397Z,6.56
2019-04-11T00:14:42.085Z,6.47
2019-04-11T00:17:14.331Z,6.38
2019-04-11T00:19:47.412Z,6.36
2019-04-11T00:22:19.632Z,6.34
2019-04-11T00:24:51.655Z,6.36
2019-04-11T00:27:24.618Z,6.38
2019-04-11T00:29:56.639Z,6.33
2019-04-11T00:32:29.574Z,6.32
2019-04-11T00:35:01.777Z,6.27
2019-04-11T00:37:34.708Z,6.26
2019-04-11T00:40:08.895Z,6.24
2019-04-11T00:42:41.252Z,6.13
2019-04-11T00:45:14.044Z,6.18
2019-04-11T00:47:46.956Z,6.22
2019-04-11T00:50:19.159Z,6.21
2019-04-11T00:52:51.675Z,6.09
2019-04-11T00:55:25.019Z,6.11
2019-04-11T00:57:57.126Z,6.06
2019-04-11T01:00:29.251Z,6.03
2019-04-11T01:03:02.023Z,6.03
2019-04-11T01:05:35.151Z,6.11
2019-04-11T01:08:07.345Z,6.18
2019-04-11T01:10:39.789Z,6.15
2019-04-11T01:13:11.966Z,6.15
2019-04-11T01:15:49.685Z,6.06
2019-04-11T01:18:22.242Z,6.02
2019-04-11T01:20:55.993Z,5.99
2019-04-11T01:23:28.956Z,6.03
2019-04-11T01:26:01.309Z,6.07
2019-04-11T01:28:34.387Z,6.11
2019-04-11T01:31:09.475Z,6.08
2019-04-11T01:33:42.173Z,6.10
2019-04-11T01:36:15.090Z,6.09
2019-04-11T01:38:51.336Z,6.04
2019-04-11T01:41:24.564Z,6.03
2019-04-11T01:44:02.158Z,6.01
2019-04-11T01:46:30.618Z,5.94
2019-04-11T01:49:23.942Z,6.00
2019-04-11T01:51:56.095Z,6.01
2019-04-11T01:54:28.236Z,5.99
2019-04-11T01:57:01.334Z,5.95
2019-04-11T01:59:35.476Z,5.83
2019-04-11T02:02:30.427Z,5.87
2019-04-11T02:05:27.527Z,5.73
2019-04-11T02:08:00.874Z,5.70
2019-04-11T02:10:33.491Z,5.73
2019-04-11T02:13:05.825Z,5.67
2019-04-11T02:15:41.312Z,5.59
2019-04-11T02:18:13.377Z,5.46
2019-04-11T02:20:45.563Z,5.26
2019-04-11T02:23:27.081Z,5.22
2019-04-11T02:26:27.302Z,5.24
2019-04-11T02:29:01.287Z,5.25
2019-04-11T02:31:34.925Z,5.17
2019-04-11T02:34:08.670Z,4.99
2019-04-11T02:36:42.527Z,5.03
2019-04-11T02:39:19.180Z,5.03
2019-04-11T02:41:50.596Z,5.02
2019-04-11T02:44:45.756Z,4.88
2019-04-11T02:47:05.582Z,4.82
2019-04-11T02:49:33.058Z,4.81
2019-04-11T02:52:06.925Z,4.75
2019-04-11T02:54:40.817Z,4.70
2019-04-11T02:57:14.099Z,4.80
2019-04-11T02:59:48.789Z,4.82
2019-04-11T03:02:21.479Z,4.90
2019-04-11T03:04:55.662Z,4.86
2019-04-11T03:07:29.905Z,4.92
2019-04-11T03:10:03.142Z,4.94
2019-04-11T03:12:38.138Z,4.93
2019-04-11T03:15:28.919Z,4.89
2019-04-11T03:17:46.168Z,4.83
2019-04-11T03:20:26.383Z,4.85
2019-04-11T03:22:57.449Z,4.82
2019-04-11T03:25:25.953Z,4.86
2019-04-11T03:27:58.977Z,4.86
2019-04-11T03:30:46.657Z,4.81
2019-04-11T03:38:36.811Z,4.58
2019-04-11T03:41:08.765Z,4.51
2019-04-11T03:43:33.693Z,4.51
2019-04-11T03:46:16.367Z,4.51
2019-04-11T03:48:45.004Z,4.48
2019-04-11T03:51:05.100Z,4.40
2019-04-11T03:53:37.406Z,4.41
2019-04-11T03:56:12.011Z,4.41
2019-04-11T03:58:46.042Z,4.38
2019-04-11T04:01:18.919Z,4.32
2019-04-11T04:03:53.939Z,4.26
2019-04-11T04:06:26.139Z,4.24
2019-04-11T04:08:58.522Z,4.29
2019-04-11T04:11:32.601Z,4.25
2019-04-11T04:14:26.220Z,4.14
2019-04-11T04:17:27.769Z,4.05
2019-04-11T04:20:11.501Z,4.09
2019-04-11T04:23:00.932Z,4.07
2019-04-11T04:25:34.729Z,4.10
2019-04-11T04:28:07.498Z,4.15
2019-04-11T04:30:42.716Z,4.06
2019-04-11T04:33:14.552Z,4.02
2019-04-11T04:35:47.498Z,3.99
2019-04-11T04:38:21.076Z,4.03
2019-04-11T04:41:12.853Z,4.12
2019-04-11T04:43:34.022Z,4.23
2019-04-11T04:46:23.726Z,4.17
2019-04-11T04:48:43.332Z,4.18
2019-04-11T04:51:16.299Z,4.16
2019-04-11T04:53:50.103Z,4.06
2019-04-11T04:56:26.439Z,4.01
2019-04-11T04:58:58.234Z,3.98
2019-04-11T05:01:31.588Z,3.98
2019-04-11T05:04:04.778Z,4.08
2019-04-11T05:06:38.776Z,4.05
2019-04-11T05:09:12.634Z,4.04
2019-04-11T05:11:46.516Z,4.03
2019-04-11T05:14:18.981Z,4.10
2019-04-11T05:16:52.559Z,4.08
2019-04-11T05:19:25.517Z,4.17
2019-04-11T05:21:59.797Z,4.11
2019-04-11T05:24:32.034Z,4.13
2019-04-11T05:27:04.195Z,4.11
2019-04-11T05:29:36.275Z,4.19
2019-04-11T05:32:09.284Z,4.29
2019-04-11T05:34:41.498Z,4.33
2019-04-11T05:37:16.893Z,4.33
2019-04-11T05:39:48.854Z,4.30
2019-04-11T05:42:24.973Z,4.36
2019-04-11T05:44:54.810Z,4.39
2019-04-11T05:47:27.638Z,4.37
2019-04-11T05:50:11.590Z,4.28
2019-04-11T05:52:42.102Z,4.23
2019-04-11T05:55:15.509Z,4.20
2019-04-11T05:57:50.140Z,4.16
2019-04-11T06:00:41.168Z,4.26
2019-04-11T06:03:13.449Z,4.28
2019-04-11T06:06:03.305Z,4.33
2019-04-11T06:08:37.847Z,4.31
2019-04-11T06:11:41.230Z,4.36
2019-04-11T06:14:33.105Z,4.52
2019-04-11T06:17:09.189Z,4.45
2019-04-11T06:20:18.260Z,4.42
2019-04-11T06:23:19.170Z,4.33
2019-04-11T06:26:22.995Z,4.17
2019-04-11T06:29:01.262Z,3.99
2019-04-11T06:31:51.588Z,4.01
2019-04-11T06:34:26.506Z,4.15
2019-04-11T06:37:17.230Z,4.28
2019-04-11T06:39:57.739Z,4.33
2019-04-11T06:42:47.643Z,4.34
2019-04-11T06:45:37.787Z,4.41
2019-04-11T06:48:30.406Z,4.45
2019-04-11T06:51:15.720Z,4.49
2019-04-11T06:53:54.665Z,4.61
2019-04-11T06:56:37.968Z,4.69
2019-04-11T06:59:14.450Z,4.57
2019-04-11T07:01:47.602Z,4.50
2019-04-11T07:04:32.071Z,4.66
2019-04-11T07:07:08.513Z,4.76
2019-04-11T07:09:50.132Z,4.71
2019-04-11T07:12:26.638Z,4.81
2019-04-11T07:15:18.885Z,4.95
2019-04-11T07:18:09.866Z,4.92
2019-04-11T07:21:02.876Z,5.11
2019-04-11T07:23:53.408Z,5.12
2019-04-11T07:26:31.510Z,5.19
2019-04-11T07:29:23.741Z,5.28
2019-04-11T07:32:16.183Z,5.28
2019-04-11T07:35:06.440Z,5.23
2019-04-11T07:37:40.689Z,4.98
2019-04-11T07:40:31.926Z,4.90
2019-04-11T07:43:11.527Z,4.87
2019-04-11T07:46:12.717Z,5.01
2019-04-11T07:48:44.875Z,5.18
2019-04-11T07:51:27.633Z,5.29
2019-04-11T07:54:02.649Z,5.30
2019-04-11T07:56:59.674Z,5.07
2019-04-11T07:59:53.674Z,5.07
2019-04-11T08:02:43.493Z,5.07
2019-04-11T08:05:38.760Z,5.09
2019-04-11T08:08:30.238Z,5.00
2019-04-11T08:11:15.847Z,5.02
2019-04-11T08:14:06.367Z,5.29
2019-04-11T08:16:57.387Z,5.38
2019-04-11T08:20:04.999Z,5.51
2019-04-11T08:22:39.378Z,5.44
2019-04-11T08:25:24.945Z,5.01
2019-04-11T08:28:04.372Z,4.86
2019-04-11T08:30:41.680Z,4.75
2019-04-11T08:33:14.180Z,4.68
2019-04-11T08:36:13.726Z,4.76
2019-04-11T08:38:46.714Z,4.92
2019-04-11T08:41:42.535Z,5.17
2019-04-11T08:44:21.324Z,5.39
2019-04-11T08:46:58.135Z,5.63
2019-04-11T08:49:37.592Z,5.87
2019-04-11T08:52:22.401Z,6.10
2019-04-11T08:55:04.226Z,6.26
2019-04-11T08:57:40.940Z,6.47
2019-04-11T09:00:28.584Z,6.54
2019-04-11T09:03:13.529Z,6.56
2019-04-11T09:06:06.397Z,6.76
2019-04-11T09:09:00.304Z,6.81
2019-04-11T09:11:42.167Z,6.74
2019-04-11T09:14:32.509Z,6.96
2019-04-11T09:17:26.153Z,7.30
2019-04-11T09:20:29.798Z,7.35
2019-04-11T09:23:06.649Z,7.53
2019-04-11T09:25:57.591Z,7.60
2019-04-11T09:28:44.203Z,7.76
2019-04-11T09:31:38.135Z,7.65
2019-04-11T09:34:33.623Z,7.83
2019-04-11T09:37:18.504Z,8.16
2019-04-11T09:40:26.279Z,8.33
2019-04-11T09:43:15.967Z,8.38
2019-04-11T09:46:18.582Z,8.48
2019-04-11T09:49:22.707Z,8.65
2019-04-11T09:52:12.269Z,8.46
2019-04-11T09:54:54.898Z,8.55
2019-04-11T09:57:38.573Z,8.56
2019-04-11T10:00:30.427Z,8.57
2019-04-11T10:03:23.687Z,8.76
2019-04-11T10:06:15.772Z,8.81
2019-04-11T10:08:56.049Z,8.95
2019-04-11T10:11:59.156Z,9.09
2019-04-11T10:14:31.696Z,8.99
2019-04-11T10:17:40.263Z,8.92
2019-04-11T10:20:16.104Z,8.68
2019-04-11T10:23:08.148Z,9.21
2019-04-11T10:25:48.139Z,9.55
2019-04-11T10:28:37.937Z,9.78
2019-04-11T10:31:15.034Z,10.07
2019-04-11T10:34:09.156Z,10.20
2019-04-11T10:36:49.468Z,10.44
2019-04-11T10:40:00.137Z,10.35
2019-04-11T10:42:34.645Z,9.95
2019-04-11T10:45:31.148Z,9.95
2019-04-11T10:48:05.523Z,10.16
2019-04-11T10:51:06.612Z,10.08
2019-04-11T10:53:39.464Z,10.03
2019-04-11T10:56:34.659Z,9.79
2019-04-11T10:59:07.168Z,9.72
2019-04-11T11:02:01.693Z,9.98
2019-04-11T11:04:36.799Z,9.92
2019-04-11T11:07:12.963Z,10.08
2019-04-11T11:10:07.318Z,10.35
2019-04-11T11:13:08.226Z,10.53
2019-04-11T11:15:50.243Z,10.84
2019-04-11T11:19:15.005Z,11.37
2019-04-11T11:21:19.772Z,11.37
2019-04-11T11:24:10.738Z,11.34
2019-04-11T11:26:43.254Z,11.12
2019-04-11T11:29:37.289Z,11.37
2019-04-11T11:32:20.967Z,11.66
2019-04-11T11:35:12.818Z,11.96
2019-04-11T11:37:50.803Z,11.90
2019-04-11T11:40:44.842Z,11.36
2019-04-11T11:43:19.525Z,11.31
2019-04-11T11:46:29.076Z,11.69
2019-04-11T11:49:37.648Z,12.01
2019-04-11T11:52:13.115Z,12.08
2019-04-11T11:54:53.668Z,11.71
2019-04-11T11:57:37.623Z,11.78
2019-04-11T12:00:16.985Z,11.98
2019-04-11T12:03:05.213Z,11.98
2019-04-11T12:05:48.174Z,12.18
2019-04-11T12:08:39.201Z,12.26
2019-04-11T12:11:13.609Z,12.44
2019-04-11T12:14:04.592Z,12.28
2019-04-11T12:17:14.332Z,12.20
2019-04-11T12:20:16.456Z,11.97
2019-04-11T12:22:50.412Z,12.03
2019-04-11T12:25:34.777Z,12.12
2019-04-11T12:28:25.775Z,12.16
2019-04-11T12:31:03.913Z,12.30
2019-04-11T12:33:54.011Z,11.90
2019-04-11T12:36:32.605Z,11.58
2019-04-11T12:39:38.653Z,11.37
2019-04-11T12:42:16.552Z,11.54
2019-04-11T12:45:06.684Z,11.32
2019-04-11T12:47:44.614Z,11.01
2019-04-11T12:50:34.636Z,10.99
2019-04-11T12:53:08.848Z,10.85
2019-04-11T12:56:02.749Z,10.83
2019-04-11T12:58:43.090Z,11.06
2019-04-11T13:01:40.845Z,11.30
2019-04-11T13:04:32.603Z,11.36
2019-04-11T13:07:31.452Z,11.28
2019-04-11T13:10:13.211Z,11.07
2019-04-11T13:13:04.056Z,10.99
2019-04-11T13:15:57.992Z,10.95
2019-04-11T13:18:49.881Z,11.04
2019-04-11T13:21:28.455Z,11.10
2019-04-11T13:24:22.195Z,11.28
2019-04-11T13:27:10.709Z,11.22
2019-04-11T13:30:04.501Z,11.13
2019-04-11T13:32:43.944Z,11.10
2019-04-11T13:35:24.807Z,10.78
2019-04-11T13:38:18.715Z,10.19
2019-04-11T13:41:16.011Z,9.91
2019-04-11T13:43:51.751Z,9.89
2019-04-11T13:46:46.528Z,9.76
2019-04-11T13:49:46.667Z,9.74
2019-04-11T13:52:37.584Z,9.73
2019-04-11T13:55:15.238Z,9.69
2019-04-11T13:58:12.030Z,9.73
2019-04-11T14:00:57.744Z,9.55
2019-04-11T14:03:49.282Z,9.57
2019-04-11T14:06:26.767Z,9.44
2019-04-11T14:09:20.725Z,9.28
2019-04-11T14:11:54.900Z,9.37
2019-04-11T14:14:32.934Z,9.48
2019-04-11T14:17:27.877Z,9.59
2019-04-11T14:20:28.561Z,9.32
2019-04-11T14:23:14.114Z,9.26
2019-04-11T14:26:05.106Z,9.45
2019-04-11T14:28:40.807Z,9.34
2019-04-11T14:31:30.548Z,9.10
2019-04-11T14:34:08.412Z,9.11
2019-04-11T14:36:58.209Z,9.15
2019-04-11T14:39:35.210Z,8.94
2019-04-11T14:42:31.818Z,8.90
2019-04-11T14:45:07.503Z,8.87
2019-04-11T14:47:56.937Z,8.89
2019-04-11T14:50:40.885Z,8.65
2019-04-11T14:53:31.024Z,8.63
2019-04-11T14:56:05.977Z,8.38
2019-04-11T14:59:06.086Z,8.33
2019-04-11T15:01:39.120Z,8.37
2019-04-11T15:04:28.310Z,8.35
2019-04-11T15:07:00.675Z,8.36
2019-04-11T15:09:41.119Z,8.34
2019-04-11T15:12:18.594Z,8.28
2019-04-11T15:15:20.017Z,8.27
2019-04-11T15:17:57.282Z,8.22
2019-04-11T15:20:54.918Z,8.28
2019-04-11T15:23:45.603Z,8.32
2019-04-11T15:26:45.471Z,8.39
2019-04-11T15:29:30.509Z,8.25
2019-04-11T15:32:20.366Z,8.09
2019-04-11T15:34:54.817Z,7.97
2019-04-11T15:37:44.713Z,7.86
2019-04-11T15:40:20.330Z,7.80
2019-04-11T15:43:11.587Z,7.94
2019-04-11T15:46:10.116Z,8.10
2019-04-11T15:49:00.919Z,8.07
2019-04-11T15:51:38.357Z,7.80
2019-04-11T15:54:34.814Z,7.67
2019-04-11T15:57:12.687Z,7.68
2019-04-11T16:00:07.750Z,7.81
2019-04-11T16:02:49.686Z,7.80
2019-04-11T16:05:41.942Z,7.85
2019-04-11T16:08:38.785Z,7.92
2019-04-11T16:11:31.409Z,7.89
2019-04-11T16:14:11.868Z,7.80
2019-04-11T16:17:05.315Z,7.75
2019-04-11T16:19:51.711Z,7.71
2019-04-11T16:22:45.243Z,7.67
2019-04-11T16:25:19.017Z,7.64
2019-04-11T16:28:11.435Z,7.68
2019-04-11T16:31:09.782Z,7.68
2019-04-11T16:34:04.476Z,7.64
2019-04-11T16:36:51.414Z,7.70
2019-04-11T16:39:47.918Z,7.75
2019-04-11T16:42:36.526Z,7.62
2019-04-11T16:45:40.832Z,7.59
2019-04-11T16:48:13.051Z,7.59
2019-04-11T16:50:45.267Z,7.51
2019-04-11T16:53:17.530Z,7.48
2019-04-11T16:55:50.118Z,7.56
2019-04-11T16:58:22.164Z,7.49
2019-04-11T17:00:54.303Z,7.44
2019-04-11T17:03:26.379Z,7.42
2019-04-11T17:06:07.692Z,7.50
2019-04-11T17:08:51.672Z,7.54
2019-04-11T17:11:26.720Z,7.52
2019-04-11T17:13:57.998Z,7.55
2019-04-11T17:16:31.001Z,7.54
2019-04-11T17:19:05.535Z,7.58
2019-04-11T17:21:43.062Z,7.64
2019-04-11T17:24:11.213Z,7.62
2019-04-11T17:26:43.189Z,7.61
2019-04-11T17:29:15.242Z,7.56
2019-04-11T17:31:47.348Z,7.58
2019-04-11T17:34:20.189Z,7.55
2019-04-11T17:36:52.156Z,7.60
2019-04-11T17:39:24.107Z,7.67
2019-04-11T17:41:56.124Z,7.56
2019-04-11T17:44:28.264Z,7.59
2019-04-11T17:47:02.540Z,7.59
2019-04-11T17:49:34.578Z,7.55
2019-04-11T17:52:08.155Z,7.56
2019-04-11T17:54:40.426Z,7.52
2019-04-11T17:57:12.523Z,7.52
2019-04-11T17:59:44.547Z,7.56
2019-04-11T18:02:16.736Z,7.58
2019-04-11T18:04:49.869Z,7.59
2019-04-11T18:07:21.862Z,7.62
2019-04-11T18:09:56.020Z,7.69
2019-04-11T18:12:27.841Z,7.65
2019-04-11T18:15:02.305Z,7.67
2019-04-11T18:17:34.949Z,7.68
2019-04-11T18:20:08.489Z,7.70
2019-04-11T18:22:41.034Z,7.69
2019-04-11T18:25:13.642Z,7.64
2019-04-11T18:27:45.812Z,7.58
2019-04-11T18:30:17.955Z,7.45
2019-04-11T18:32:50.285Z,7.42
2019-04-11T18:35:22.412Z,7.43
2019-04-11T18:37:54.483Z,7.47
2019-04-11T18:40:27.047Z,7.56
2019-04-11T18:42:59.096Z,7.49
2019-04-11T18:45:31.313Z,7.50
2019-04-11T18:48:03.292Z,7.48
2019-04-11T18:50:35.250Z,7.45
2019-04-11T18:53:07.560Z,7.36
2019-04-11T18:55:40.047Z,7.31
2019-04-11T18:58:11.997Z,7.29
2019-04-11T19:00:44.423Z,7.32
2019-04-11T19:03:16.663Z,7.24
2019-04-11T19:05:48.759Z,7.20
2019-04-11T19:08:21.150Z,7.29
2019-04-11T19:10:53.357Z,7.24
2019-04-11T19:13:25.436Z,7.23
2019-04-11T19:15:57.525Z,7.14
2019-04-11T19:18:29.602Z,7.06
2019-04-11T19:21:01.736Z,7.04
2019-04-11T19:23:33.679Z,7.14
2019-04-11T19:26:05.721Z,7.04
2019-04-11T19:28:37.929Z,6.90
2019-04-11T19:31:12.324Z,6.90
2019-04-11T19:33:44.176Z,6.93
2019-04-11T19:36:16.220Z,6.91
2019-04-11T19:38:48.292Z,6.85
2019-04-11T19:41:20.935Z,6.78
2019-04-11T19:43:53.307Z,6.76
2019-04-11T19:46:25.488Z,6.78
2019-04-11T19:48:59.500Z,6.62
2019-04-11T19:51:31.277Z,6.49
2019-04-11T19:54:03.889Z,6.38
2019-04-11T19:56:47.215Z,6.34
2019-04-11T19:59:19.214Z,6.34
2019-04-11T20:01:53.177Z,6.39
2019-04-11T20:04:25.190Z,6.36
2019-04-11T20:06:57.388Z,6.35
2019-04-11T20:09:29.427Z,6.38
2019-04-11T20:12:01.777Z,6.40
2019-04-11T20:14:34.937Z,6.28
2019-04-11T20:17:09.189Z,6.24
2019-04-11T20:19:41.088Z,6.22
2019-04-11T20:22:13.171Z,6.30
2019-04-11T20:24:46.865Z,6.26
2019-04-11T20:27:20.258Z,6.19
2019-04-11T20:29:55.246Z,6.10
2019-04-11T20:32:26.880Z,6.06
2019-04-11T20:34:58.982Z,6.02
2019-04-11T20:37:39.055Z,5.89
2019-04-11T20:40:05.477Z,5.83
2019-04-11T20:42:37.751Z,5.84
2019-04-11T20:45:10.657Z,5.85
2019-04-11T20:47:42.752Z,5.77
2019-04-11T20:50:18.237Z,5.76
2019-04-11T20:52:50.920Z,5.85
2019-04-11T20:55:23.013Z,5.86
2019-04-11T20:57:55.093Z,5.84
2019-04-11T21:00:27.405Z,5.90
2019-04-11T21:02:59.993Z,5.86
2019-04-11T21:05:33.993Z,5.88
2019-04-11T21:08:06.138Z,5.79
2019-04-11T21:10:38.223Z,5.79
2019-04-11T21:13:10.495Z,5.76
2019-04-11T21:15:43.468Z,5.78
2019-04-11T21:18:15.796Z,5.82
2019-04-11T21:20:47.837Z,5.70
2019-04-11T21:23:24.698Z,5.59
2019-04-11T21:25:53.577Z,5.62
2019-04-11T21:28:27.863Z,5.62
2019-04-11T21:31:00.740Z,5.63
2019-04-11T21:33:34.955Z,5.69
2019-04-11T21:36:07.000Z,5.57
2019-04-11T21:38:39.457Z,5.45
2019-04-11T21:41:12.833Z,5.44
2019-04-11T21:43:44.831Z,5.45
2019-04-11T21:46:18.767Z,5.43
2019-04-11T21:48:52.706Z,5.40
2019-04-11T21:51:24.766Z,5.47
2019-04-11T21:53:56.804Z,5.47
2019-04-11T21:56:29.044Z,5.45
2019-04-11T21:59:01.282Z,5.46
2019-04-11T22:01:34.011Z,5.39
2019-04-11T22:04:06.199Z,5.29
2019-04-11T22:06:38.303Z,5.31
2019-04-11T22:09:11.034Z,5.28
2019-04-11T22:11:42.983Z,5.35
2019-04-11T22:14:14.973Z,5.35
2019-04-11T22:16:46.884Z,5.37
2019-04-11T22:19:18.933Z,5.35
2019-04-11T22:21:51.310Z,5.36
2019-04-11T22:24:23.273Z,5.27
2019-04-11T22:26:55.300Z,5.22
2019-04-11T22:29:28.737Z,5.14
2019-04-11T22:32:00.720Z,5.15
2019-04-11T22:34:44.930Z,5.13
2019-04-11T22:37:16.973Z,5.10
2019-04-11T22:39:48.901Z,5.04
2019-04-11T22:42:21.343Z,5.04
2019-04-11T22:44:53.302Z,5.04
2019-04-11T22:47:25.456Z,5.01
2019-04-11T22:49:57.402Z,4.97
2019-04-11T22:52:29.509Z,4.98
2019-04-11T22:55:01.596Z,4.98
2019-04-11T22:57:33.635Z,4.98
2019-04-11T23:00:09.208Z,4.95
2019-04-11T23:03:00.009Z,4.92
2019-04-11T23:05:32.196Z,5.01
2019-04-11T23:08:04.167Z,4.97
2019-04-11T23:10:36.628Z,4.93
2019-04-11T23:13:08.593Z,4.95
2019-04-11T23:15:43.373Z,4.94
2019-04-11T23:18:16.090Z,4.96
2019-04-11T23:20:48.034Z,4.97
2019-04-11T23:23:20.439Z,4.94
2019-04-11T23:25:52.604Z,4.95
2019-04-11T23:28:24.550Z,4.90
2019-04-11T23:30:56.626Z,4.95
2019-04-11T23:33:28.680Z,5.01
2019-04-11T23:36:01.106Z,4.88
2019-04-11T23:38:33.286Z,4.79
2019-04-11T23:41:05.320Z,4.76
2019-04-11T23:43:37.262Z,4.70
2019-04-11T23:46:09.240Z,4.76
2019-04-11T23:48:41.218Z,4.75
2019-04-11T23:51:13.170Z,4.74
2019-04-11T23:53:47.004Z,4.74
2019-04-11T23:56:19.010Z,4.70
2019-04-11T23:58:51.389Z,4.72
